Wednesday, June 20, 2018, 3:02 PM GMT
Back to Local

CYMX, Montreal / Mirabel

Location: , , Canada Lat: 45.683
Local Time: 3:02 PM GMT (15:02 GMT) Lon: -74.033
Time Zone: GMT Elev: 269 ft

Show me the last for .
Show Decoded

2018-06-20 14:00 METAR CYMX 201400Z 25009KT 210V290 45SM FEW150 BKN260 20/13 A2983 RMK AC1CI7 AC
                 TR SLP103 DENSITY ALT 1000FT =
2018-06-20 13:00 METAR CYMX 201300Z 25008KT 200V270 35SM BKN250 17/13 A2984 RMK CI7 SLP106
                 DENSITY ALT 700FT =
2018-06-20 12:00 METAR CYMX 201200Z 25007KT 210V280 45SM FEW150 BKN260 15/11 A2985 RMK AC1CI7 AC
                 TR SLP111 DENSITY ALT 400FT =
2018-06-20 11:00 METAR CYMX 201100Z 24004KT 45SM FEW150 BKN250 13/11 A2986 RMK AC1CI5 SLP113 =
2018-06-20 10:00 METAR CYMX 201000Z 22006KT 190V270 45SM FEW150 FEW250 13/11 A2985 RMK AC1CI1
                 SLP111 =
2018-06-20 09:00 METAR CYMX 200900Z 24002KT 45SM FEW160 FEW260 11/10 A2985 RMK AC1CI1 AC TR CI TR
                 SLP111 =
2018-06-20 08:00 METAR CYMX 200800Z 25002KT 25SM FEW250 12/10 A2985 RMK CI1 CI TR SLP111 =
2018-06-20 07:00 METAR CYMX 200700Z 22004KT 25SM FEW250 13/10 A2986 RMK CI1 CI TR SLP115 =
2018-06-20 06:00 METAR CYMX 200600Z 25004KT 25SM SKC 14/09 A2988 RMK SLP119 DENSITY ALT 300FT =
2018-06-20 05:00 METAR CYMX 200500Z 26004KT 25SM SKC 15/10 A2989 RMK SLP125 DENSITY ALT 400FT =
2018-06-20 04:00 METAR CYMX 200400Z 26004KT 220V290 25SM SKC 16/10 A2989 RMK SLP124 DENSITY ALT
                 500FT =
2018-06-20 03:00 METAR CYMX 200300Z 26005KT 220V280 25SM FEW250 16/10 A2989 RMK CI1 CI TR SLP125
                 DENSITY ALT 500FT =
2018-06-20 02:00 METAR CYMX 200200Z 26003KT 25SM FEW260 17/10 A2990 RMK CI1 CI TR SLP128 DENSITY
                 ALT 700FT =
2018-06-20 01:00 METAR CYMX 200100Z 25004KT 200V360 25SM FEW220 FEW280 18/09 A2989 RMK CI1CI1 CI
                 TR CI TR SLP125 DENSITY ALT 800FT =
2018-06-20 00:00 METAR CYMX 200000Z 28004KT 250V320 45SM FEW250 21/09 A2989 RMK CI1 CI TR SLP122
                 DENSITY ALT 1100FT =
2018-06-19 23:00 METAR CYMX 192300Z 30009KT 230V330 45SM FEW250 23/07 A2988 RMK CI1 CI TR SLP120
                 DENSITY ALT 1300FT =
2018-06-19 22:00 METAR CYMX 192200Z 31005KT 45SM FEW250 23/07 A2988 RMK CI1 CI TR SLP119 DENSITY
                 ALT 1400FT =
2018-06-19 21:00 METAR CYMX 192100Z 30004KT 250V350 45SM FEW045 FEW250 23/10 A2987 RMK CU1CI1 CU
                 TR CI TR SLP118 DENSITY ALT 1400FT =
2018-06-19 20:00 METAR CYMX 192000Z 25003KT 200V010 45SM FEW045 FEW250 23/08 A2989 RMK CU1CI1 CU
                 TR CI TR SLP122 DENSITY ALT 1300FT =
2018-06-19 19:00 METAR CYMX 191900Z 34009KT 260V010 45SM FEW040 FEW250 22/07 A2989 RMK CU1CI1 CU
                 TR SLP123 DENSITY ALT 1200FT =
2018-06-19 18:00 METAR CYMX 191800Z 36009KT 290V020 45SM FEW045 22/08 A2989 RMK SC1 SLP125
                 DENSITY ALT 1200FT =
2018-06-19 17:48 METAR CYMX 191748Z 34014KT 250V360 45SM FEW045 21/08 A2989 RMK CF1 WSHFT 1742
                 SLP125 DENSITY ALT 1200FT =
2018-06-19 17:39 METAR CYMX 191739Z 33011G16KT 260V350 45SM FEW045 21/09 A2989 RMK CF1 WSHFT 1704
                 SLP125 DENSITY ALT 1100FT =
2018-06-19 17:00 METAR CYMX 191700Z 31005G19KT 260V360 45SM FEW045 21/10 A2989 RMK CF1 SLP124
                 DENSITY ALT 1100FT =
2018-06-19 16:00 METAR CYMX 191600Z 30006KT 230V340 45SM FEW030 21/09 A2990 RMK CU1 SLP128
                 DENSITY ALT 1000FT =

Support USWX by starting your Amazon purchase here.